Time;durP1;ratioP1;P1;durP2;ratioP2;P2;SDS_P1;SDS_P2;PMS_P1;PMS_P2;Temp;Humidity;BMP_temperature;BMP_pressure;BME280_temperature;BME280_humidity;BME280_pressure;Samples;Min_cycle;Max_cycle;Signal;HPM_P1;HPM_P2
2024/04/16 00:04:44;;;;;;;3.30;1.47;;;1.20;99.90;;;;;;1942840;72;27008;-86
2024/04/16 00:07:33;;;;;;;5.87;1.87;;;1.20;99.90;;;;;;1878860;76;25261;-85
2024/04/16 00:10:21;;;;;;;2.63;1.40;;;1.30;99.90;;;;;;1936843;73;25273;-86
2024/04/16 00:13:09;;;;;;;1.97;1.37;;;1.40;99.90;;;;;;1931092;73;25249;-87
2024/04/16 00:15:58;;;;;;;2.30;1.30;;;1.50;99.90;;;;;;1924666;73;25307;-85
2024/04/16 00:18:48;;;;;;;1.93;1.33;;;1.60;99.90;;;;;;1928036;73;25609;-85
2024/04/16 00:24:22;;;;;;;2.30;1.20;;;1.70;99.90;;;;;;1956712;72;27041;-86
2024/04/16 00:27:11;;;;;;;1.63;1.20;;;1.80;99.90;;;;;;1923735;73;25721;-86
2024/04/16 00:32:41;;;;;;;1.10;1.00;;;1.90;99.90;;;;;;1923657;72;27088;-86
2024/04/16 00:35:29;;;;;;;2.23;1.10;;;2.00;99.90;;;;;;1914022;74;25832;-86
2024/04/16 00:38:18;;;;;;;3.70;1.10;;;2.10;99.90;;;;;;1911603;74;25668;-86
2024/04/16 00:41:07;;;;;;;1.20;1.10;;;2.20;99.90;;;;;;1895049;74;25758;-86
2024/04/16 00:43:55;;;;;;;2.07;1.03;;;2.20;99.90;;;;;;1885507;74;25338;-86
2024/04/16 00:46:44;;;;;;;0.80;0.80;;;2.20;99.90;;;;;;1838787;77;25674;-86
2024/04/16 00:49:32;;;;;;;3.63;1.00;;;2.40;99.90;;;;;;1895889;75;25231;-87
2024/04/16 00:52:21;;;;;;;1.87;0.80;;;2.40;99.90;;;;;;1905327;74;25396;-85
2024/04/16 00:55:10;;;;;;;1.27;0.83;;;2.60;99.90;;;;;;1888536;74;25733;-86
2024/04/16 00:57:58;;;;;;;0.93;0.87;;;2.90;99.90;;;;;;1860076;76;25198;-86
2024/04/16 01:03:26;;;;;;;1.27;0.90;;;3.00;99.90;;;;;;1927458;72;26985;-86
2024/04/16 01:09:01;;;;;;;0.73;0.73;;;3.10;99.90;;;;;;1958003;72;27151;-86
2024/04/16 01:11:50;;;;;;;0.90;0.90;;;3.10;99.90;;;;;;1865913;76;25212;-87
2024/04/16 01:14:39;;;;;;;0.93;0.93;;;3.20;99.90;;;;;;1905497;73;25275;-86
2024/04/16 01:17:27;;;;;;;1.70;0.80;;;3.20;99.90;;;;;;1922261;74;25275;-86
2024/04/16 01:20:16;;;;;;;0.77;0.77;;;3.20;99.90;;;;;;1925262;73;25694;-86
2024/04/16 01:23:05;;;;;;;1.00;0.90;;;3.30;99.90;;;;;;1924187;73;25355;-86
2024/04/16 01:25:54;;;;;;;0.87;0.80;;;3.30;99.90;;;;;;1922474;73;25202;-86
2024/04/16 01:28:42;;;;;;;1.33;1.03;;;3.20;99.90;;;;;;1914128;74;25268;-86
2024/04/16 01:31:32;;;;;;;0.73;0.73;;;3.10;99.90;;;;;;1924898;74;25753;-86
2024/04/16 01:34:20;;;;;;;1.13;0.70;;;3.10;99.90;;;;;;1918867;73;25155;-87
2024/04/16 01:39:48;;;;;;;2.50;0.93;;;3.20;99.90;;;;;;1937488;72;27098;-86
2024/04/16 01:45:17;;;;;;;1.13;0.87;;;3.20;99.90;;;;;;1942278;72;27107;-87
2024/04/16 01:50:52;;;;;;;0.87;0.80;;;3.30;99.90;;;;;;1988769;71;26980;-86
2024/04/16 01:53:41;;;;;;;1.07;1.00;;;3.50;99.90;;;;;;1940652;72;25257;-86
2024/04/16 01:56:29;;;;;;;0.80;0.80;;;3.40;99.90;;;;;;1940972;72;25263;-86
2024/04/16 01:59:17;;;;;;;1.70;0.77;;;3.50;99.90;;;;;;1950977;71;25729;-86
2024/04/16 02:02:08;;;;;;;0.83;0.80;;;3.50;99.90;;;;;;1955696;72;25242;-86
2024/04/16 02:04:57;;;;;;;0.80;0.80;;;3.40;99.90;;;;;;1942478;72;25747;-87
2024/04/16 02:07:46;;;;;;;0.70;0.70;;;3.40;99.90;;;;;;1947091;72;25188;-86
2024/04/16 02:13:18;;;;;;;2.17;0.80;;;3.40;99.90;;;;;;1943183;72;27114;-86
2024/04/16 02:16:08;;;;;;;1.30;0.80;;;3.40;99.90;;;;;;1843037;77;25253;-86
2024/04/16 02:18:57;;;;;;;0.70;0.70;;;3.50;99.90;;;;;;1903621;75;25209;-86
2024/04/16 02:24:26;;;;;;;2.27;0.87;;;3.50;99.90;;;;;;1944379;72;27006;-86
2024/04/16 02:27:14;;;;;;;1.07;0.90;;;3.50;99.90;;;;;;1941168;72;25167;-86
2024/04/16 02:30:03;;;;;;;0.90;0.90;;;3.50;99.90;;;;;;1936189;72;25256;-86
2024/04/16 02:35:33;;;;;;;0.80;0.80;;;3.30;99.90;;;;;;1935793;72;27530;-86
2024/04/16 02:38:23;;;;;;;3.27;0.67;;;3.30;99.90;;;;;;1898326;74;25222;-86
2024/04/16 02:41:11;;;;;;;0.87;0.70;;;3.30;99.90;;;;;;1893566;75;25772;-86
2024/04/16 02:43:59;;;;;;;3.40;0.87;;;3.20;99.90;;;;;;1898789;75;25239;-86
2024/04/16 02:46:48;;;;;;;3.43;1.03;;;3.20;99.90;;;;;;1912593;75;25751;-86
2024/04/16 02:52:20;;;;;;;0.90;0.90;;;3.10;99.90;;;;;;1944563;72;27536;-86
2024/04/16 02:55:09;;;;;;;1.07;0.90;;;3.20;99.90;;;;;;1923962;73;25208;-86
2024/04/16 02:57:58;;;;;;;1.00;0.90;;;3.10;99.90;;;;;;1906328;74;25177;-86
2024/04/16 03:03:32;;;;;;;0.70;0.70;;;2.90;99.90;;;;;;1943278;72;27073;-87
2024/04/16 03:06:21;;;;;;;0.80;0.80;;;2.80;99.90;;;;;;1911777;75;25299;-87
2024/04/16 03:09:09;;;;;;;1.20;0.70;;;2.70;99.90;;;;;;1891156;75;25257;-86
2024/04/16 03:11:58;;;;;;;1.00;0.93;;;2.70;99.90;;;;;;1891297;75;25172;-85
2024/04/16 03:14:47;;;;;;;2.43;0.97;;;2.60;99.90;;;;;;1892903;75;25248;-86
2024/04/16 03:17:35;;;;;;;1.13;0.80;;;2.60;99.90;;;;;;1844213;77;25231;-86
2024/04/16 03:20:24;;;;;;;0.70;0.70;;;2.40;99.90;;;;;;1891921;75;25647;-86
2024/04/16 03:23:13;;;;;;;0.80;0.80;;;2.40;99.90;;;;;;1905233;75;25650;-85
2024/04/16 03:26:04;;;;;;;1.40;0.90;;;2.30;99.90;;;;;;1897585;75;25325;-86
2024/04/16 03:28:53;;;;;;;1.27;0.90;;;2.30;99.90;;;;;;1890446;74;25163;-86
2024/04/16 03:31:42;;;;;;;6.17;1.00;;;2.10;99.90;;;;;;1899724;75;25287;-87
2024/04/16 03:34:32;;;;;;;2.13;0.87;;;2.00;99.90;;;;;;1912343;74;25241;-87
2024/04/16 03:37:20;;;;;;;0.80;0.80;;;1.90;99.90;;;;;;1893732;75;26505;-87
2024/04/16 03:40:10;;;;;;;1.23;0.70;;;1.90;99.90;;;;;;1900882;74;25297;-88
2024/04/16 03:42:58;;;;;;;0.90;0.90;;;1.90;99.90;;;;;;1902526;75;25304;-87
2024/04/16 03:48:26;;;;;;;3.10;0.80;;;1.70;99.90;;;;;;1955012;72;26935;-87
2024/04/16 03:51:15;;;;;;;0.80;0.80;;;1.60;99.90;;;;;;1836580;77;25230;-87
2024/04/16 03:54:03;;;;;;;0.67;0.67;;;1.50;99.90;;;;;;1884094;75;25720;-87
2024/04/16 03:56:52;;;;;;;1.10;1.00;;;1.50;99.90;;;;;;1916370;75;25979;-87
2024/04/16 04:01:00;;;;;;;1.93;0.80;;;1.50;99.90;;;;;;1907146;75;25331;-86
2024/04/16 04:05:30;;;;;;;1.17;0.90;;;1.40;99.90;;;;;;1927300;72;27240;-86
2024/04/16 04:08:19;;;;;;;2.10;1.00;;;1.40;99.90;;;;;;1898789;75;25238;-87
2024/04/16 04:11:07;;;;;;;2.20;1.03;;;1.40;99.90;;;;;;1868909;76;25182;-87
2024/04/16 04:13:56;;;;;;;1.20;0.90;;;1.50;99.90;;;;;;1835343;76;25334;-86
2024/04/16 04:16:44;;;;;;;1.70;0.80;;;1.50;99.90;;;;;;1901458;73;25289;-87
2024/04/16 04:19:33;;;;;;;2.27;0.90;;;1.50;99.90;;;;;;1863397;76;25257;-86
2024/04/16 04:22:21;;;;;;;0.73;0.73;;;1.60;99.90;;;;;;1848942;76;25769;-86
2024/04/16 04:27:49;;;;;;;3.13;1.00;;;1.90;99.90;;;;;;2018380;69;26948;-86
2024/04/16 04:30:38;;;;;;;2.77;1.00;;;2.10;99.90;;;;;;2018749;70;25184;-85
2024/04/16 04:33:27;;;;;;;5.30;0.80;;;2.20;99.90;;;;;;2017626;70;25675;-85
2024/04/16 04:36:16;;;;;;;0.83;0.70;;;2.20;99.90;;;;;;2012695;71;25237;-85
2024/04/16 04:39:05;;;;;;;0.80;0.80;;;2.00;99.90;;;;;;2004984;70;25335;-85
2024/04/16 04:41:54;;;;;;;2.63;0.63;;;2.00;99.90;;;;;;2025237;71;25204;-85
2024/04/16 04:44:43;;;;;;;0.80;0.80;;;2.00;99.90;;;;;;2015820;70;25178;-85
2024/04/16 04:47:32;;;;;;;1.87;0.60;;;2.00;99.90;;;;;;1995696;70;25203;-85
2024/04/16 04:50:21;;;;;;;1.00;0.90;;;2.10;99.90;;;;;;2005422;70;25813;-85
2024/04/16 04:53:09;;;;;;;3.33;1.20;;;2.00;99.90;;;;;;2020437;70;25692;-85
2024/04/16 04:55:57;;;;;;;1.33;1.00;;;2.00;99.90;;;;;;1996348;72;25265;-85
2024/04/16 04:58:46;;;;;;;4.90;1.40;;;2.10;99.90;;;;;;1981900;72;25363;-85
2024/04/16 05:01:36;;;;;;;3.07;0.90;;;2.10;99.90;;;;;;1974292;71;25259;-86
2024/04/16 05:04:25;;;;;;;2.63;0.70;;;2.30;99.90;;;;;;1980110;72;25293;-87
2024/04/16 05:07:14;;;;;;;2.10;0.87;;;2.50;99.90;;;;;;1973786;72;25164;-85
2024/04/16 05:12:52;;;;;;;0.77;0.73;;;3.10;99.90;;;;;;1948949;72;27087;-86
2024/04/16 05:15:41;;;;;;;1.90;1.03;;;3.40;99.90;;;;;;1941974;73;25232;-86
2024/04/16 05:18:30;;;;;;;1.10;0.80;;;3.60;99.90;;;;;;1934433;73;25219;-87
2024/04/16 05:21:22;;;;;;;3.37;0.90;;;4.00;99.90;;;;;;1932953;73;25675;-86
2024/04/16 05:24:13;;;;;;;1.17;0.80;;;4.00;99.90;;;;;;1919546;73;25174;-86
2024/04/16 05:27:03;;;;;;;3.13;1.10;;;4.10;99.90;;;;;;1922869;73;25231;-86
2024/04/16 05:29:51;;;;;;;2.00;0.83;;;4.30;99.90;;;;;;1948461;73;25233;-85
2024/04/16 05:32:40;;;;;;;0.80;0.80;;;4.40;99.90;;;;;;1932960;73;25257;-85
2024/04/16 05:35:28;;;;;;;0.70;0.70;;;4.50;99.90;;;;;;1932378;73;25184;-85
2024/04/16 05:38:17;;;;;;;1.33;0.93;;;4.40;99.90;;;;;;1944199;73;25721;-84
2024/04/16 05:41:07;;;;;;;1.43;0.90;;;4.30;99.90;;;;;;1943846;73;25242;-85
2024/04/16 05:43:56;;;;;;;4.03;1.10;;;4.40;99.90;;;;;;1932450;73;25345;-84
2024/04/16 05:46:47;;;;;;;0.90;0.90;;;4.70;99.90;;;;;;1939290;73;25342;-84
2024/04/16 05:52:18;;;;;;;0.97;0.80;;;4.90;99.90;;;;;;1951691;72;26897;-85
2024/04/16 05:57:47;;;;;;;1.87;0.87;;;4.60;99.90;;;;;;1939535;72;27522;-85
2024/04/16 06:00:37;;;;;;;4.13;0.77;;;5.00;99.90;;;;;;1889225;73;25301;-85
2024/04/16 06:06:07;;;;;;;1.83;0.83;;;5.70;99.90;;;;;;1999992;69;27018;-85
2024/04/16 06:08:55;;;;;;;4.73;0.73;;;5.50;99.90;;;;;;1968447;72;25261;-85
2024/04/16 06:11:44;;;;;;;51.50;3.00;;;5.70;99.90;;;;;;1984859;72;25159;-85
2024/04/16 06:14:33;;;;;;;2.10;0.80;;;5.60;99.90;;;;;;1986742;72;25183;-85
2024/04/16 06:17:21;;;;;;;3.03;0.60;;;5.60;99.90;;;;;;1983148;72;25283;-86
2024/04/16 06:20:11;;;;;;;2.07;0.70;;;5.50;99.90;;;;;;1986259;72;25233;-86
2024/04/16 06:23:00;;;;;;;1.20;0.70;;;5.70;99.90;;;;;;1984974;72;25275;-85
2024/04/16 06:25:48;;;;;;;1.80;0.70;;;5.60;99.90;;;;;;1984545;72;25763;-86
2024/04/16 06:31:22;;;;;;;0.80;0.80;;;5.40;99.90;;;;;;1959233;72;26962;-86
2024/04/16 06:36:55;;;;;;;0.90;0.70;;;5.40;99.90;;;;;;2019208;69;27041;-85
2024/04/16 06:39:45;;;;;;;2.27;0.80;;;5.40;99.90;;;;;;1971315;70;25280;-86
2024/04/16 06:42:36;;;;;;;1.67;0.80;;;5.50;99.90;;;;;;1963617;70;25564;-87
2024/04/16 06:45:25;;;;;;;1.67;0.80;;;5.50;99.90;;;;;;1968911;72;25264;-86
2024/04/16 06:48:14;;;;;;;3.50;0.60;;;6.20;99.90;;;;;;1973407;72;25267;-86
2024/04/16 06:51:04;;;;;;;1.80;0.90;;;6.40;99.90;;;;;;1933774;73;25161;-85
2024/04/16 06:53:53;;;;;;;1.93;0.80;;;6.40;99.90;;;;;;1973744;72;25877;-85
2024/04/16 06:56:42;;;;;;;2.47;0.90;;;6.60;99.90;;;;;;1962376;72;25297;-85
2024/04/16 06:59:31;;;;;;;0.93;0.60;;;6.80;99.90;;;;;;1920325;75;25237;-84
2024/04/16 07:02:19;;;;;;;0.67;0.67;;;6.60;99.90;;;;;;1880503;75;25193;-86
2024/04/16 07:05:09;;;;;;;0.80;0.70;;;6.50;99.90;;;;;;1944602;73;25701;-85
2024/04/16 07:10:47;;;;;;;0.50;0.50;;;6.60;99.90;;;;;;1944494;72;27590;-86
2024/04/16 07:16:22;;;;;;;1.53;0.60;;;6.30;99.90;;;;;;1948344;72;27010;-86
2024/04/16 07:21:58;;;;;;;0.43;0.43;;;6.20;99.90;;;;;;1956041;72;27508;-86
2024/04/16 07:24:47;;;;;;;0.30;0.30;;;6.30;99.90;;;;;;1923155;73;25664;-86
2024/04/16 07:27:36;;;;;;;0.40;0.40;;;6.10;99.90;;;;;;1920974;73;25731;-86
2024/04/16 07:30:24;;;;;;;0.93;0.67;;;5.70;99.90;;;;;;1918184;73;25250;-87
2024/04/16 07:33:13;;;;;;;1.13;0.60;;;5.70;99.90;;;;;;1919475;73;25225;-85
2024/04/16 07:36:08;;;;;;;0.40;0.40;;;5.90;99.90;;;;;;1918102;73;25264;-86
2024/04/16 07:38:54;;;;;;;0.63;0.40;;;6.10;99.90;;;;;;1925280;73;25282;-86
2024/04/16 07:41:43;;;;;;;0.87;0.60;;;6.50;99.90;;;;;;1927395;73;25314;-86
2024/04/16 07:44:35;;;;;;;0.50;0.50;;;6.60;99.90;;;;;;1923087;73;25701;-85
2024/04/16 07:47:22;;;;;;;1.53;0.60;;;6.60;99.90;;;;;;1919153;73;25248;-85
2024/04/16 07:50:10;;;;;;;0.20;0.20;;;6.70;99.90;;;;;;1923474;73;25237;-85
2024/04/16 07:55:40;;;;;;;0.33;0.33;;;6.60;99.90;;;;;;1915790;72;27647;-86
2024/04/16 08:01:08;;;;;;;0.50;0.50;;;6.80;99.90;;;;;;1951121;72;27037;-86
2024/04/16 08:06:37;;;;;;;1.47;0.70;;;7.00;99.90;;;;;;1945031;72;27105;-86
2024/04/16 08:09:25;;;;;;;1.47;0.57;;;7.40;99.90;;;;;;1890388;75;25257;-86
2024/04/16 08:12:14;;;;;;;0.50;0.50;;;7.20;99.90;;;;;;1896645;75;25730;-86
2024/04/16 08:15:03;;;;;;;0.60;0.60;;;7.30;99.90;;;;;;1901590;75;25161;-87
2024/04/16 08:17:52;;;;;;;0.70;0.70;;;7.60;99.90;;;;;;1913195;75;25219;-86
2024/04/16 08:20:42;;;;;;;1.83;0.77;;;7.40;99.90;;;;;;1911255;75;25688;-87
2024/04/16 08:26:14;;;;;;;0.50;0.50;;;7.60;99.90;;;;;;1972609;71;27476;-86
2024/04/16 08:29:02;;;;;;;0.60;0.60;;;7.80;99.90;;;;;;1942809;73;25370;-87
2024/04/16 08:34:32;;;;;;;2.53;0.67;;;8.40;99.90;;;;;;1955380;72;27045;-86
2024/04/16 08:37:20;;;;;;;0.50;0.50;;;8.50;99.90;;;;;;1922464;73;25224;-86
2024/04/16 08:42:54;;;;;;;3.60;0.77;;;8.00;99.90;;;;;;1946239;72;27045;-86
2024/04/16 08:45:44;;;;;;;0.60;0.60;;;7.90;99.90;;;;;;1885139;75;25211;-86
2024/04/16 08:48:39;;;;;;;1.23;0.63;;;8.00;99.90;;;;;;1890109;75;25231;-85
2024/04/16 08:51:30;;;;;;;2.13;0.63;;;8.50;99.90;;;;;;1886055;75;25928;-86
2024/04/16 08:54:20;;;;;;;0.67;0.60;;;8.50;99.90;;;;;;1891922;75;25725;-86
2024/04/16 08:57:08;;;;;;;2.67;0.50;;;8.60;99.90;;;;;;1873112;76;25289;-86
2024/04/16 09:02:46;;;;;;;0.50;0.50;;;8.90;99.90;;;;;;1949359;72;27032;-87
2024/04/16 09:05:35;;;;;;;1.70;0.40;;;9.10;99.90;;;;;;1930783;73;25253;-86
2024/04/16 09:08:25;;;;;;;0.83;0.50;;;9.40;99.90;;;;;;1917202;73;25249;-87
2024/04/16 09:11:14;;;;;;;0.60;0.60;;;9.40;99.90;;;;;;1875174;76;25659;-87
2024/04/16 09:14:04;;;;;;;1.20;0.47;;;9.50;99.90;;;;;;1940286;73;25850;-86
2024/04/16 09:16:53;;;;;;;0.93;0.67;;;8.90;99.90;;;;;;1939056;73;25197;-85
2024/04/16 09:19:41;;;;;;;0.60;0.60;;;8.40;99.90;;;;;;1924466;73;25972;-87
2024/04/16 09:25:10;;;;;;;1.13;0.70;;;8.30;99.90;;;;;;1949336;72;26944;-87
2024/04/16 09:27:59;;;;;;;1.40;0.73;;;7.90;99.90;;;;;;1935627;72;25215;-86
2024/04/16 09:30:56;;;;;;;0.50;0.50;;;7.80;99.90;;;;;;1924579;72;25191;-86
2024/04/16 09:33:45;;;;;;;0.60;0.60;;;7.70;99.90;;;;;;1939783;73;26427;-86
2024/04/16 09:36:34;;;;;;;0.57;0.57;;;7.80;99.90;;;;;;1969218;72;25524;-86
2024/04/16 09:39:24;;;;;;;0.53;0.53;;;7.90;99.90;;;;;;1931909;73;25209;-86
2024/04/16 09:42:13;;;;;;;2.00;0.70;;;8.00;99.90;;;;;;1902298;74;25790;-86
2024/04/16 09:45:02;;;;;;;0.70;0.50;;;8.30;99.90;;;;;;1945823;72;25292;-86
2024/04/16 09:50:35;;;;;;;0.80;0.60;;;8.10;99.90;;;;;;1942382;72;27067;-86
2024/04/16 09:53:29;;;;;;;1.57;0.70;;;8.00;99.90;;;;;;1922247;73;25164;-85
2024/04/16 09:59:06;;;;;;;0.50;0.50;;;7.30;99.90;;;;;;1970320;72;27063;-86
2024/04/16 10:05:21;;;;;;;2.40;0.77;;;7.30;99.90;;;;;;1954403;72;27001;-86
2024/04/16 10:08:08;;;;;;;0.83;0.47;;;7.30;99.90;;;;;;1896440;74;25233;-86
2024/04/16 10:10:59;;;;;;;0.57;0.57;;;7.50;99.90;;;;;;1912912;75;25699;-86
2024/04/16 10:13:56;;;;;;;0.60;0.60;;;7.80;99.90;;;;;;1885750;75;25235;-86
2024/04/16 10:19:24;;;;;;;0.40;0.40;;;7.90;99.90;;;;;;1945449;72;27001;-86
2024/04/16 10:22:13;;;;;;;1.80;0.60;;;7.50;99.90;;;;;;1938332;73;25178;-87
2024/04/16 10:27:51;;;;;;;2.23;0.50;;;7.70;99.90;;;;;;2016369;69;27050;-86
2024/04/16 10:30:39;;;;;;;2.00;0.67;;;7.90;99.90;;;;;;1948260;73;25236;-86
2024/04/16 10:36:08;;;;;;;2.17;0.70;;;8.00;99.90;;;;;;1946215;72;26994;-86
2024/04/16 10:38:58;;;;;;;0.70;0.70;;;8.60;99.90;;;;;;1903489;73;25901;-86
2024/04/16 10:41:53;;;;;;;1.30;0.70;;;8.60;99.90;;;;;;1907056;73;25284;-86
2024/04/16 10:47:25;;;;;;;1.27;0.50;;;8.30;99.90;;;;;;1983001;71;27896;-86
2024/04/16 10:50:14;;;;;;;0.63;0.60;;;8.40;99.90;;;;;;1896632;75;25337;-86
2024/04/16 10:55:51;;;;;;;0.87;0.60;;;8.40;99.90;;;;;;1921391;72;27085;-87
2024/04/16 11:01:28;;;;;;;1.03;0.50;;;8.20;99.90;;;;;;1934007;72;27516;-87
2024/04/16 11:04:18;;;;;;;1.10;0.60;;;8.10;99.90;;;;;;1888529;75;25275;-87
2024/04/16 11:07:07;;;;;;;1.77;0.53;;;8.30;99.90;;;;;;1900608;75;25269;-86
2024/04/16 11:12:40;;;;;;;0.50;0.50;;;8.30;99.90;;;;;;1934333;72;27167;-87
2024/04/16 11:18:26;;;;;;;0.63;0.50;;;9.10;99.90;;;;;;1949704;72;26974;-86
2024/04/16 11:21:15;;;;;;;0.40;0.40;;;9.00;99.90;;;;;;1948663;72;25161;-87
2024/04/16 11:24:05;;;;;;;0.50;0.50;;;8.90;99.90;;;;;;1895686;75;25311;-85
2024/04/16 11:26:54;;;;;;;0.80;0.70;;;8.70;99.90;;;;;;1908666;75;25709;-85
2024/04/16 11:29:49;;;;;;;1.27;0.77;;;8.60;99.90;;;;;;1901687;75;25302;-85
2024/04/16 11:32:39;;;;;;;4.20;0.83;;;8.00;99.90;;;;;;1884108;75;25361;-85
2024/04/16 11:35:27;;;;;;;1.33;0.80;;;8.00;99.90;;;;;;1900027;75;25228;-87
2024/04/16 11:41:05;;;;;;;0.93;0.60;;;7.80;99.90;;;;;;1949775;72;27760;-86
2024/04/16 11:46:41;;;;;;;3.80;0.50;;;7.90;99.90;;;;;;2033031;69;27598;-86
2024/04/16 11:49:31;;;;;;;1.27;0.80;;;8.20;99.90;;;;;;2008696;71;25262;-87
2024/04/16 11:52:19;;;;;;;2.20;0.60;;;8.40;99.90;;;;;;1994631;71;25142;-86
2024/04/16 11:55:08;;;;;;;0.40;0.40;;;8.50;99.90;;;;;;1977190;71;25786;-86
2024/04/16 11:57:57;;;;;;;4.53;0.80;;;8.80;99.90;;;;;;1983361;71;25143;-86
2024/04/16 12:00:45;;;;;;;0.60;0.60;;;8.80;99.90;;;;;;1996500;71;25748;-86
2024/04/16 12:06:13;;;;;;;0.73;0.60;;;9.10;99.90;;;;;;1936761;72;27039;-86
2024/04/16 12:09:01;;;;;;;0.60;0.60;;;8.90;99.90;;;;;;1834414;77;25855;-86
2024/04/16 12:11:51;;;;;;;0.40;0.40;;;8.70;99.90;;;;;;1885799;75;25756;-86
2024/04/16 12:14:40;;;;;;;0.60;0.60;;;8.30;99.90;;;;;;1903215;75;25287;-86
2024/04/16 12:17:28;;;;;;;0.47;0.47;;;8.00;99.90;;;;;;1893782;75;25898;-86
2024/04/16 12:20:17;;;;;;;0.40;0.40;;;8.10;99.90;;;;;;1917010;75;25260;-86
2024/04/16 12:23:06;;;;;;;0.50;0.50;;;7.90;99.90;;;;;;1896885;75;25344;-86
2024/04/16 12:28:35;;;;;;;0.60;0.60;;;8.20;99.90;;;;;;1893248;74;27093;-86
2024/04/16 12:31:24;;;;;;;0.60;0.60;;;8.30;99.90;;;;;;1845105;77;25222;-87
2024/04/16 12:34:12;;;;;;;0.60;0.60;;;8.10;99.90;;;;;;1845958;77;25179;-87
2024/04/16 12:39:48;;;;;;;0.57;0.57;;;8.60;99.90;;;;;;1947200;72;27039;-87
2024/04/16 12:42:37;;;;;;;0.47;0.40;;;8.80;99.90;;;;;;1924319;73;25202;-87
2024/04/16 12:45:26;;;;;;;0.50;0.50;;;9.00;99.90;;;;;;1917115;73;25258;-87
2024/04/16 12:48:18;;;;;;;0.40;0.40;;;9.40;99.90;;;;;;1939678;73;25228;-87
2024/04/16 12:51:06;;;;;;;0.50;0.50;;;9.80;99.90;;;;;;1919635;73;25273;-86
2024/04/16 12:53:55;;;;;;;1.50;0.50;;;9.80;99.90;;;;;;1918001;73;25267;-87
2024/04/16 12:56:43;;;;;;;0.40;0.40;;;9.60;99.90;;;;;;1938723;73;25894;-87
2024/04/16 13:02:16;;;;;;;2.67;0.60;;;9.00;99.90;;;;;;1983815;71;26987;-87
2024/04/16 13:07:43;;;;;;;1.07;0.70;;;8.50;99.90;;;;;;1949307;72;26999;-87
2024/04/16 13:10:32;;;;;;;3.10;0.53;;;8.20;99.90;;;;;;1843922;76;25258;-87
2024/04/16 13:13:21;;;;;;;0.50;0.50;;;8.10;99.90;;;;;;1911222;75;25786;-87
2024/04/16 13:16:09;;;;;;;0.50;0.50;;;8.30;99.90;;;;;;1906297;75;25864;-87
2024/04/16 13:18:58;;;;;;;0.53;0.43;;;8.10;99.90;;;;;;1887714;75;25321;-87
2024/04/16 13:21:46;;;;;;;0.50;0.50;;;8.00;99.90;;;;;;1906713;75;25249;-86
2024/04/16 13:24:35;;;;;;;0.40;0.40;;;7.90;99.90;;;;;;1904958;75;25227;-87
2024/04/16 13:27:23;;;;;;;1.27;0.50;;;7.80;99.90;;;;;;1899959;75;25615;-87
2024/04/16 13:32:55;;;;;;;3.83;0.50;;;7.70;99.90;;;;;;1960470;72;27119;-87
2024/04/16 13:35:42;;;;;;;0.20;0.20;;;7.90;99.90;;;;;;1919966;72;25249;-86
2024/04/16 13:38:31;;;;;;;0.60;0.60;;;7.90;99.90;;;;;;1924690;73;25245;-87
2024/04/16 13:41:20;;;;;;;0.30;0.30;;;7.80;99.90;;;;;;1937834;72;25270;-87
2024/04/16 13:44:09;;;;;;;0.40;0.40;;;7.80;99.90;;;;;;1932166;73;26343;-87
2024/04/16 13:46:57;;;;;;;1.87;0.50;;;7.90;99.90;;;;;;1952047;72;25502;-86
2024/04/16 13:49:46;;;;;;;7.57;0.60;;;8.10;99.90;;;;;;1936994;72;25315;-86
2024/04/16 13:52:34;;;;;;;0.93;0.40;;;8.30;99.90;;;;;;1915764;73;25310;-86
2024/04/16 13:55:23;;;;;;;0.40;0.40;;;8.30;99.90;;;;;;1927722;73;25273;-86
2024/04/16 13:58:12;;;;;;;0.47;0.47;;;8.40;99.90;;;;;;1916338;74;25276;-86
2024/04/16 14:01:01;;;;;;;0.40;0.40;;;8.60;99.90;;;;;;1910876;75;25287;-86
2024/04/16 14:03:50;;;;;;;0.40;0.40;;;8.60;99.90;;;;;;1911573;74;25220;-86
2024/04/16 14:06:39;;;;;;;1.57;0.50;;;8.60;99.90;;;;;;1915714;74;25229;-86
2024/04/16 14:09:28;;;;;;;1.03;0.60;;;8.70;99.90;;;;;;1902171;75;25389;-86
2024/04/16 14:14:56;;;;;;;0.40;0.40;;;9.20;99.90;;;;;;1942801;72;27115;-87
2024/04/16 14:17:44;;;;;;;0.30;0.30;;;9.20;99.90;;;;;;1908444;75;25265;-87
2024/04/16 14:20:33;;;;;;;0.30;0.30;;;9.00;99.90;;;;;;1898127;75;25720;-87
2024/04/16 14:23:21;;;;;;;0.30;0.30;;;9.00;99.90;;;;;;1901341;75;25676;-87
2024/04/16 14:26:10;;;;;;;0.70;0.40;;;8.80;99.90;;;;;;1905883;75;25287;-87
2024/04/16 14:28:58;;;;;;;0.20;0.20;;;8.50;99.90;;;;;;1910075;75;25181;-86
2024/04/16 14:31:47;;;;;;;1.37;0.73;;;8.00;99.90;;;;;;1884506;75;25285;-87
2024/04/16 14:34:36;;;;;;;0.50;0.50;;;7.70;99.90;;;;;;1901453;75;25796;-86
2024/04/16 14:37:26;;;;;;;0.50;0.50;;;8.00;99.90;;;;;;1900891;75;25180;-86
2024/04/16 14:40:15;;;;;;;2.63;0.50;;;8.10;99.90;;;;;;1910640;75;25162;-86
2024/04/16 14:43:04;;;;;;;1.13;0.50;;;8.10;99.90;;;;;;1886952;75;25203;-87
2024/04/16 14:45:52;;;;;;;2.90;0.80;;;8.20;99.90;;;;;;1884644;75;25231;-87
2024/04/16 14:48:41;;;;;;;0.97;0.40;;;8.00;99.90;;;;;;1883087;75;25785;-87
2024/04/16 14:51:29;;;;;;;0.47;0.47;;;8.00;99.90;;;;;;1888195;75;25211;-87
2024/04/16 14:56:57;;;;;;;0.50;0.50;;;8.20;99.90;;;;;;1922124;72;26985;-87
2024/04/16 14:59:46;;;;;;;0.60;0.60;;;8.40;99.90;;;;;;1855158;75;25263;-87
2024/04/16 15:05:15;;;;;;;2.47;0.40;;;8.80;99.90;;;;;;1920277;74;27154;-87
2024/04/16 15:08:03;;;;;;;1.27;0.60;;;9.00;99.90;;;;;;1860054;76;25246;-87
2024/04/16 15:10:52;;;;;;;0.83;0.50;;;9.40;99.90;;;;;;1835184;77;25293;-87
2024/04/16 15:13:41;;;;;;;5.57;0.40;;;9.40;99.90;;;;;;1823238;77;25342;-86
2024/04/16 15:16:30;;;;;;;0.70;0.70;;;9.00;99.90;;;;;;1872353;76;25235;-86
2024/04/16 15:19:18;;;;;;;0.57;0.40;;;8.50;99.90;;;;;;1873429;76;25215;-87
2024/04/16 15:22:07;;;;;;;0.30;0.30;;;8.50;99.90;;;;;;1880120;74;25226;-87
2024/04/16 15:24:56;;;;;;;2.80;0.90;;;8.70;99.90;;;;;;1859394;74;25241;-87
2024/04/16 15:27:44;;;;;;;0.80;0.80;;;8.70;99.90;;;;;;1874450;76;25351;-87
2024/04/16 15:30:33;;;;;;;2.73;0.40;;;8.60;99.90;;;;;;1873179;76;25307;-87
2024/04/16 15:36:06;;;;;;;0.37;0.37;;;8.60;99.90;;;;;;1879725;74;27086;-87
2024/04/16 15:41:35;;;;;;;0.40;0.40;;;9.20;99.90;;;;;;1929532;72;27051;-87
2024/04/16 15:44:23;;;;;;;0.77;0.50;;;9.40;99.90;;;;;;1850173;75;25226;-87
2024/04/16 15:49:58;;;;;;;0.57;0.37;;;9.40;99.90;;;;;;1985105;71;26431;-87
2024/04/16 15:52:46;;;;;;;0.40;0.40;;;9.20;99.90;;;;;;1916776;75;25809;-87
2024/04/16 15:55:35;;;;;;;0.40;0.40;;;9.20;99.90;;;;;;1933354;73;25291;-85
2024/04/16 15:58:25;;;;;;;0.67;0.57;;;9.50;99.90;;;;;;1934630;73;25133;-85
2024/04/16 16:01:13;;;;;;;0.43;0.40;;;9.60;99.90;;;;;;1932100;73;25282;-86
2024/04/16 16:04:02;;;;;;;0.40;0.40;;;9.60;99.90;;;;;;1943020;73;25242;-85
2024/04/16 16:06:51;;;;;;;0.37;0.37;;;9.60;99.90;;;;;;1926864;73;25194;-86
2024/04/16 16:09:39;;;;;;;0.93;0.40;;;9.40;99.90;;;;;;1929457;73;25149;-85
2024/04/16 16:12:28;;;;;;;1.57;0.60;;;8.20;99.90;;;;;;1935953;73;25153;-86
2024/04/16 16:15:16;;;;;;;0.30;0.30;;;7.50;99.90;;;;;;1930724;73;25196;-85
2024/04/16 16:20:45;;;;;;;0.80;0.80;;;7.10;99.90;;;;;;1932322;72;27099;-87
2024/04/16 16:23:33;;;;;;;0.70;0.70;;;7.00;99.90;;;;;;1916425;74;25162;-86
2024/04/16 16:26:21;;;;;;;0.60;0.60;;;7.00;99.90;;;;;;1896049;75;25238;-86
2024/04/16 16:29:10;;;;;;;0.70;0.70;;;6.90;99.90;;;;;;1898915;74;25276;-86
2024/04/16 16:31:58;;;;;;;3.80;0.70;;;6.80;99.90;;;;;;1896568;75;25209;-87
2024/04/16 16:34:47;;;;;;;0.70;0.70;;;6.80;99.90;;;;;;1904934;75;25227;-87
2024/04/16 16:37:35;;;;;;;0.60;0.60;;;6.50;99.90;;;;;;1889516;75;25285;-86
2024/04/16 16:40:24;;;;;;;2.57;0.80;;;6.50;99.90;;;;;;1899573;75;25233;-87
2024/04/16 16:43:13;;;;;;;0.57;0.57;;;6.40;99.90;;;;;;1900204;75;25256;-86
2024/04/16 16:46:04;;;;;;;0.60;0.60;;;6.50;99.90;;;;;;1908012;75;25143;-87
2024/04/16 16:48:52;;;;;;;0.47;0.47;;;6.50;99.90;;;;;;1888573;75;25240;-87
2024/04/16 16:51:41;;;;;;;0.50;0.50;;;6.50;99.90;;;;;;1898614;75;25846;-87
2024/04/16 16:54:29;;;;;;;0.40;0.40;;;6.40;99.90;;;;;;1885937;75;25745;-87
2024/04/16 16:59:57;;;;;;;0.70;0.70;;;6.60;99.90;;;;;;1957995;72;27082;-87
2024/04/16 17:05:26;;;;;;;0.50;0.50;;;6.90;99.90;;;;;;1931702;72;27149;-87
2024/04/16 17:08:14;;;;;;;0.50;0.50;;;7.00;99.90;;;;;;1898342;73;25826;-87
2024/04/16 17:11:04;;;;;;;0.77;0.60;;;6.80;99.90;;;;;;1916981;73;25320;-88
2024/04/16 17:13:52;;;;;;;0.47;0.47;;;6.50;99.90;;;;;;1921178;73;25784;-87
2024/04/16 17:16:41;;;;;;;0.60;0.60;;;6.40;99.90;;;;;;1908156;75;25317;-86
2024/04/16 17:19:30;;;;;;;0.73;0.60;;;6.40;99.90;;;;;;1909835;73;25245;-87
2024/04/16 17:25:04;;;;;;;0.60;0.60;;;6.40;99.90;;;;;;1951778;72;27393;-87
2024/04/16 17:27:52;;;;;;;0.60;0.60;;;6.40;99.90;;;;;;1926616;73;25242;-87
2024/04/16 17:30:42;;;;;;;0.60;0.60;;;6.40;99.90;;;;;;1941982;74;25197;-86
2024/04/16 17:33:31;;;;;;;2.30;0.70;;;6.40;99.90;;;;;;1937016;73;25702;-86
2024/04/16 17:36:19;;;;;;;0.70;0.70;;;6.30;99.90;;;;;;1936455;73;26097;-86
2024/04/16 17:39:08;;;;;;;0.67;0.67;;;6.30;99.90;;;;;;1942054;73;25274;-86
2024/04/16 17:44:37;;;;;;;0.80;0.80;;;6.20;99.90;;;;;;1941186;72;27013;-87